createdAt,value
2023-02-06T00:04:53.114Z,-4.54
2023-02-06T00:09:54.546Z,-4.35
2023-02-06T00:14:56.001Z,-4.74
2023-02-06T00:19:57.417Z,-4.27
2023-02-06T00:24:58.863Z,-4.16
2023-02-06T00:30:00.382Z,-4.20
2023-02-06T00:35:01.928Z,-4.31
2023-02-06T00:40:03.448Z,-4.32
2023-02-06T00:45:05.892Z,-4.36
2023-02-06T00:50:07.603Z,-4.38
2023-02-06T00:55:09.084Z,-4.37
2023-02-06T01:00:11.129Z,-4.43
2023-02-06T01:05:12.563Z,-4.49
2023-02-06T01:10:14.076Z,-4.45
2023-02-06T01:15:15.618Z,-4.36
2023-02-06T01:20:17.248Z,-4.47
2023-02-06T01:25:18.780Z,-4.53
2023-02-06T01:30:20.261Z,-4.52
2023-02-06T01:35:21.727Z,-4.52
2023-02-06T01:40:23.289Z,-5.22
2023-02-06T01:45:39.912Z,-5.60
2023-02-06T01:50:46.178Z,-5.91
2023-02-06T01:55:49.657Z,-5.01
2023-02-06T02:00:51.374Z,-4.80
2023-02-06T02:05:57.166Z,-4.85
2023-02-06T02:11:03.161Z,-4.74
2023-02-06T02:16:20.208Z,-4.73
2023-02-06T02:21:39.609Z,-4.75
2023-02-06T02:32:59.697Z,-4.75
2023-02-06T02:38:10.293Z,-4.79
2023-02-06T02:43:28.440Z,-4.80
2023-02-06T02:48:35.950Z,-4.85
2023-02-06T02:53:37.506Z,-5.45
2023-02-06T02:58:39.742Z,-5.38
2023-02-06T03:03:44.927Z,-5.03
2023-02-06T03:09:02.969Z,-4.93
2023-02-06T03:14:21.998Z,-5.00
2023-02-06T03:19:30.722Z,-4.85
2023-02-06T03:24:38.001Z,-5.18
2023-02-06T03:29:41.833Z,-4.99
2023-02-06T03:34:53.679Z,-4.99
2023-02-06T03:39:59.020Z,-5.35
2023-02-06T03:45:06.364Z,-5.65
2023-02-06T03:50:10.691Z,-5.31
2023-02-06T03:55:21.718Z,-5.11
2023-02-06T04:00:23.509Z,-4.99
2023-02-06T04:05:25.411Z,-5.00
2023-02-06T04:10:26.884Z,-5.01
2023-02-06T04:15:28.356Z,-5.07
2023-02-06T04:20:30.061Z,-5.40
2023-02-06T04:25:31.510Z,-5.08
2023-02-06T04:30:32.982Z,-5.33
2023-02-06T04:35:34.633Z,-5.26
2023-02-06T04:40:37.168Z,-5.24
2023-02-06T04:45:38.923Z,-5.48
2023-02-06T04:50:40.422Z,-5.46
2023-02-06T04:55:41.842Z,-5.29
2023-02-06T05:00:43.266Z,-5.15
2023-02-06T05:05:45.355Z,-5.14
2023-02-06T05:10:46.961Z,-4.98
2023-02-06T05:15:48.676Z,-5.06
2023-02-06T05:20:50.118Z,-4.96
2023-02-06T05:25:51.563Z,-4.88
2023-02-06T05:30:53.478Z,-4.86
2023-02-06T05:36:00.505Z,-4.78
2023-02-06T05:41:01.973Z,-4.78
2023-02-06T05:46:03.604Z,-4.66
2023-02-06T05:51:05.293Z,-4.74
2023-02-06T05:56:06.902Z,-4.64
2023-02-06T06:01:08.356Z,-4.62
2023-02-06T06:06:09.990Z,-4.58
2023-02-06T06:11:11.478Z,-4.59
2023-02-06T06:16:13.011Z,-4.51
2023-02-06T06:21:14.500Z,-4.42
2023-02-06T06:26:16.422Z,-4.42
2023-02-06T06:31:18.066Z,-4.39
2023-02-06T06:36:19.814Z,-4.28
2023-02-06T06:41:21.243Z,-4.25
2023-02-06T06:46:22.917Z,-4.19
2023-02-06T06:51:26.646Z,-4.11
2023-02-06T06:56:28.292Z,-4.05
2023-02-06T07:01:29.717Z,-4.12
2023-02-06T07:06:31.166Z,-4.10
2023-02-06T07:11:32.600Z,-3.99
2023-02-06T07:16:34.043Z,-3.99
2023-02-06T07:21:35.771Z,-4.00
2023-02-06T07:26:37.197Z,-3.95
2023-02-06T07:31:38.796Z,-3.91
2023-02-06T07:36:40.274Z,-3.89
2023-02-06T07:41:42.813Z,-3.77
2023-02-06T07:46:47.697Z,-3.68
2023-02-06T07:51:49.175Z,-3.66
2023-02-06T07:56:50.596Z,-3.62
2023-02-06T08:01:52.540Z,-3.58
2023-02-06T08:06:53.962Z,-3.49
2023-02-06T08:11:55.401Z,-3.47
2023-02-06T08:16:56.865Z,-3.39
2023-02-06T08:21:58.434Z,-3.44
2023-02-06T08:26:59.869Z,-3.35
2023-02-06T08:32:01.980Z,-3.25
2023-02-06T08:37:03.935Z,-3.17
2023-02-06T08:42:05.393Z,-3.04
2023-02-06T08:47:10.502Z,-2.93
2023-02-06T08:52:12.139Z,-2.91
2023-02-06T08:57:13.623Z,-2.92
2023-02-06T09:02:15.114Z,-2.86
2023-02-06T09:07:17.377Z,-2.72
2023-02-06T09:12:18.909Z,-2.63
2023-02-06T09:17:20.460Z,-2.79
2023-02-06T09:22:22.102Z,-2.58
2023-02-06T09:27:23.543Z,-2.67
2023-02-06T09:32:25.010Z,-2.58
2023-02-06T09:37:26.438Z,-2.68
2023-02-06T09:42:31.857Z,-2.56
2023-02-06T09:47:37.558Z,-2.54
2023-02-06T09:52:53.469Z,-2.53
2023-02-06T09:58:19.241Z,-2.46
2023-02-06T10:03:45.482Z,-2.34
2023-02-06T10:08:59.309Z,-2.40
2023-02-06T10:14:05.519Z,-2.38
2023-02-06T10:19:17.681Z,-2.32
2023-02-06T10:24:32.561Z,-2.31
2023-02-06T10:29:36.250Z,-2.24
2023-02-06T10:35:00.568Z,-2.19
2023-02-06T10:40:11.519Z,-2.09
2023-02-06T10:45:36.426Z,-2.08
2023-02-06T10:50:44.191Z,-2.16
2023-02-06T10:55:55.453Z,-2.08
2023-02-06T11:00:59.280Z,-1.87
2023-02-06T11:06:02.135Z,-1.98
2023-02-06T11:11:20.264Z,-1.99
2023-02-06T11:16:27.325Z,-1.83
2023-02-06T11:21:50.816Z,-1.89
2023-02-06T11:26:57.589Z,-1.63
2023-02-06T11:32:01.810Z,-1.53
2023-02-06T11:37:06.237Z,-1.60
2023-02-06T11:42:13.512Z,-1.49
2023-02-06T11:47:37.731Z,-1.49
2023-02-06T11:52:41.799Z,-1.46
2023-02-06T11:57:43.373Z,-1.35
2023-02-06T12:02:52.101Z,-1.33
2023-02-06T12:07:56.683Z,-1.15
2023-02-06T12:13:06.799Z,-1.05
2023-02-06T12:18:27.476Z,-0.96
2023-02-06T12:23:36.375Z,-0.99
2023-02-06T12:28:43.794Z,-0.90
2023-02-06T12:33:54.708Z,-0.95
2023-02-06T12:39:00.745Z,-0.84
2023-02-06T12:44:11.365Z,-0.79
2023-02-06T12:49:35.639Z,-0.83
2023-02-06T12:54:53.822Z,-0.83
2023-02-06T13:00:01.770Z,-0.79
2023-02-06T13:05:17.308Z,-0.76
2023-02-06T13:10:23.571Z,-0.64
2023-02-06T13:15:36.103Z,-0.70
2023-02-06T13:21:14.611Z,-0.67
2023-02-06T13:26:16.496Z,-0.65
2023-02-06T13:31:26.620Z,-0.64
2023-02-06T13:36:44.017Z,-0.65
2023-02-06T13:41:45.500Z,-0.55
2023-02-06T13:47:34.660Z,-0.54
2023-02-06T13:53:14.301Z,-0.51
2023-02-06T13:58:45.672Z,-0.50
2023-02-06T14:03:50.358Z,-0.60
2023-02-06T14:09:03.704Z,-0.50
2023-02-06T14:14:31.097Z,-0.50
2023-02-06T14:19:54.411Z,-0.44
2023-02-06T14:25:10.130Z,-0.38
2023-02-06T14:30:33.086Z,-0.38
2023-02-06T14:35:52.740Z,-0.49
2023-02-06T14:40:56.971Z,-0.47
2023-02-06T14:46:07.635Z,-0.29
2023-02-06T14:51:41.890Z,-0.46
2023-02-06T14:56:43.362Z,-0.41
2023-02-06T15:01:48.269Z,-0.58
2023-02-06T15:07:01.947Z,-0.73
2023-02-06T15:12:18.220Z,-0.66
2023-02-06T15:17:21.482Z,-0.90
2023-02-06T15:22:27.751Z,-0.98
2023-02-06T15:27:34.756Z,-0.98
2023-02-06T15:32:39.852Z,-1.11
2023-02-06T15:37:41.314Z,-0.90
2023-02-06T15:42:43.132Z,-1.36
2023-02-06T15:47:46.081Z,-1.16
2023-02-06T15:52:48.140Z,-1.53
2023-02-06T15:57:51.115Z,-1.48
2023-02-06T16:02:56.572Z,-1.71
2023-02-06T16:07:58.891Z,-1.90
2023-02-06T16:13:01.906Z,-1.98
2023-02-06T16:18:24.960Z,-1.50
2023-02-06T16:23:30.734Z,-1.39
2023-02-06T16:28:32.159Z,-1.42
2023-02-06T16:33:38.357Z,-1.85
2023-02-06T16:38:40.050Z,-1.57
2023-02-06T16:43:42.091Z,-1.56
2023-02-06T16:48:43.652Z,-1.64
2023-02-06T16:53:48.113Z,-1.78
2023-02-06T16:58:49.694Z,-1.88
2023-02-06T17:03:52.640Z,-1.94
2023-02-06T17:08:58.795Z,-2.30
2023-02-06T17:14:00.242Z,-2.24
2023-02-06T17:19:01.686Z,-2.29
2023-02-06T17:24:03.231Z,-2.33
2023-02-06T17:29:04.678Z,-2.35
2023-02-06T17:34:06.245Z,-2.44
2023-02-06T17:39:07.696Z,-2.60
2023-02-06T17:44:09.162Z,-2.66
2023-02-06T17:49:10.685Z,-2.77
2023-02-06T17:54:12.492Z,-2.79
2023-02-06T17:59:13.984Z,-2.84
2023-02-06T18:04:19.502Z,-2.95
2023-02-06T18:09:20.953Z,-2.99
2023-02-06T18:14:22.394Z,-3.04
2023-02-06T18:19:25.214Z,-3.35
2023-02-06T18:24:26.649Z,-3.33
2023-02-06T18:29:34.645Z,-3.32
2023-02-06T18:34:45.397Z,-3.27
2023-02-06T18:39:47.175Z,-3.35
2023-02-06T18:44:48.617Z,-3.55
2023-02-06T18:49:50.041Z,-3.55
2023-02-06T18:54:51.496Z,-3.56
2023-02-06T18:59:53.376Z,-3.67
2023-02-06T19:04:57.616Z,-3.59
2023-02-06T19:10:00.647Z,-3.88
2023-02-06T19:15:02.100Z,-4.08
2023-02-06T19:20:04.536Z,-4.08
2023-02-06T19:25:10.942Z,-4.01
2023-02-06T19:30:13.778Z,-3.84
2023-02-06T19:35:15.488Z,-3.94
2023-02-06T19:40:17.210Z,-4.00
2023-02-06T19:45:18.693Z,-3.99
2023-02-06T19:50:20.146Z,-4.05
2023-02-06T19:55:21.578Z,-4.22
2023-02-06T20:00:23.190Z,-4.28
2023-02-06T20:05:27.102Z,-4.25
2023-02-06T20:10:29.124Z,-4.28
2023-02-06T20:15:31.945Z,-4.22
2023-02-06T20:20:34.043Z,-4.36
2023-02-06T20:25:38.162Z,-4.37
2023-02-06T20:30:39.973Z,-4.39
2023-02-06T20:35:44.677Z,-4.44
2023-02-06T20:40:51.052Z,-4.69
2023-02-06T20:45:52.507Z,-4.46
2023-02-06T20:50:58.409Z,-4.55
2023-02-06T20:55:59.859Z,-4.67
2023-02-06T21:01:01.330Z,-4.59
2023-02-06T21:06:02.797Z,-4.69
2023-02-06T21:11:05.649Z,-4.70
2023-02-06T21:16:07.260Z,-4.74
2023-02-06T21:21:11.365Z,-4.72
2023-02-06T21:26:13.884Z,-4.84
2023-02-06T21:31:18.812Z,-4.89
2023-02-06T21:36:21.116Z,-4.85
2023-02-06T21:41:22.777Z,-4.99
2023-02-06T21:46:24.494Z,-4.93
2023-02-06T21:51:26.512Z,-5.06
2023-02-06T21:56:28.375Z,-5.01
2023-02-06T22:01:33.342Z,-5.01
2023-02-06T22:06:37.568Z,-5.05
2023-02-06T22:11:39.735Z,-5.15
2023-02-06T22:16:41.624Z,-5.09
2023-02-06T22:21:43.138Z,-5.24
2023-02-06T22:26:45.164Z,-5.41
2023-02-06T22:31:48.311Z,-5.29
2023-02-06T22:36:51.129Z,-5.47
2023-02-06T22:41:52.638Z,-5.51
2023-02-06T22:46:54.147Z,-5.46
2023-02-06T22:51:57.900Z,-5.46
2023-02-06T22:56:59.328Z,-5.54
2023-02-06T23:02:00.809Z,-5.67
2023-02-06T23:07:02.373Z,-5.47
2023-02-06T23:12:04.197Z,-6.31
2023-02-06T23:17:05.633Z,-6.02
2023-02-06T23:22:07.889Z,-5.83
2023-02-06T23:27:09.384Z,-5.76
2023-02-06T23:32:11.023Z,-5.89
2023-02-06T23:37:12.504Z,-5.85
2023-02-06T23:42:13.966Z,-5.78
2023-02-06T23:47:15.384Z,-6.05
2023-02-06T23:52:16.856Z,-5.96
2023-02-06T23:57:18.359Z,-6.15
